Time;durP1;ratioP1;P1;durP2;ratioP2;P2;SDS_P1;SDS_P2;PMS_P1;PMS_P2;Temp;Humidity;BMP_temperature;BMP_pressure;BME280_temperature;BME280_humidity;BME280_pressure;Samples;Min_cycle;Max_cycle;Signal;HPM_P1;HPM_P2
2024/04/23 00:02:03;;;;;;;2.30;2.10;;;23.00;51.10;;;;;;5450146;26;20323;-69
2024/04/23 00:04:28;;;;;;;1.70;1.50;;;23.00;51.00;;;;;;5449970;26;20753;-68
2024/04/23 00:06:55;;;;;;;2.10;1.60;;;22.90;51.00;;;;;;5418150;26;20235;-69
2024/04/23 00:09:20;;;;;;;2.00;1.80;;;22.90;51.00;;;;;;5449998;26;20223;-69
2024/04/23 00:11:46;;;;;;;2.47;2.07;;;22.90;51.00;;;;;;5449869;26;20441;-69
2024/04/23 00:14:11;;;;;;;3.10;1.80;;;23.00;51.10;;;;;;5449597;26;20337;-69
2024/04/23 00:16:37;;;;;;;2.03;1.33;;;23.00;51.10;;;;;;5418072;26;20223;-68
2024/04/23 00:19:02;;;;;;;1.93;1.70;;;23.00;51.10;;;;;;5449770;26;20231;-69
2024/04/23 00:21:28;;;;;;;2.13;1.90;;;23.00;51.10;;;;;;5449697;26;20750;-69
2024/04/23 00:23:54;;;;;;;2.30;1.80;;;23.00;51.10;;;;;;5449626;26;20223;-68
2024/04/23 00:26:19;;;;;;;2.10;1.90;;;22.90;51.00;;;;;;5449529;26;20274;-69
2024/04/23 00:28:45;;;;;;;2.60;2.40;;;22.90;51.00;;;;;;5449457;26;20295;-69
2024/04/23 00:31:10;;;;;;;1.60;1.50;;;22.90;51.00;;;;;;5449548;26;20227;-69
2024/04/23 00:33:36;;;;;;;1.57;1.47;;;22.90;51.00;;;;;;5449472;26;20262;-68
2024/04/23 00:36:01;;;;;;;1.57;1.33;;;22.90;51.00;;;;;;5449591;26;20705;-68
2024/04/23 00:38:27;;;;;;;1.70;1.37;;;22.90;51.00;;;;;;5449498;26;20621;-69
2024/04/23 00:40:53;;;;;;;2.43;1.73;;;22.90;51.00;;;;;;5449316;26;20215;-69
2024/04/23 00:43:18;;;;;;;1.60;1.40;;;22.90;51.00;;;;;;5449344;26;20275;-69
2024/04/23 00:45:47;;;;;;;2.00;1.80;;;22.90;51.00;;;;;;5449293;26;20706;-69
2024/04/23 00:48:15;;;;;;;2.00;1.67;;;22.90;51.10;;;;;;5449118;26;20309;-69
2024/04/23 00:50:41;;;;;;;3.20;2.40;;;22.90;51.00;;;;;;5449250;26;20445;-69
2024/04/23 00:53:07;;;;;;;2.47;1.83;;;22.90;51.00;;;;;;5448982;26;20440;-69
2024/04/23 00:55:34;;;;;;;2.23;1.70;;;22.90;51.10;;;;;;5449120;26;20805;-68
2024/04/23 00:58:02;;;;;;;2.10;1.53;;;22.90;51.00;;;;;;5448960;26;20513;-69
2024/04/23 01:00:27;;;;;;;2.40;1.83;;;22.90;51.00;;;;;;5449202;26;20484;-69
2024/04/23 01:02:53;;;;;;;1.40;1.30;;;22.90;51.00;;;;;;5449049;26;20429;-69
2024/04/23 01:05:19;;;;;;;1.87;1.40;;;22.90;51.00;;;;;;5448843;26;20335;-69
2024/04/23 01:07:45;;;;;;;2.50;1.70;;;22.90;51.00;;;;;;5449738;26;20270;-69
2024/04/23 01:10:10;;;;;;;2.00;1.77;;;22.90;51.00;;;;;;5452421;26;20223;-69
2024/04/23 01:12:36;;;;;;;2.30;1.90;;;22.90;51.00;;;;;;5452389;26;20660;-68
2024/04/23 01:15:02;;;;;;;1.90;1.50;;;22.90;51.10;;;;;;5452513;26;20231;-69
2024/04/23 01:17:28;;;;;;;2.90;1.63;;;22.90;51.00;;;;;;5452501;26;20332;-69
2024/04/23 01:20:01;;;;;;;2.03;1.60;;;22.90;51.00;;;;;;5452329;26;21071;-68
2024/04/23 01:22:57;;;;;;;3.37;2.10;;;22.90;51.00;;;;;;5452488;26;20512;-69
2024/04/23 01:25:23;;;;;;;1.70;1.57;;;22.90;51.00;;;;;;5452223;26;20445;-67
2024/04/23 01:27:49;;;;;;;2.90;1.40;;;22.90;51.00;;;;;;5452111;26;20480;-69
2024/04/23 01:30:16;;;;;;;2.00;1.67;;;22.90;51.10;;;;;;5452420;26;20501;-69
2024/04/23 01:32:43;;;;;;;2.00;1.60;;;22.90;51.10;;;;;;5452186;26;20495;-69
2024/04/23 01:35:10;;;;;;;2.53;1.73;;;22.90;51.10;;;;;;5452252;26;20484;-69
2024/04/23 01:37:38;;;;;;;2.20;1.50;;;22.90;51.00;;;;;;5452123;26;20498;-69
2024/04/23 01:40:05;;;;;;;1.73;1.43;;;22.90;51.00;;;;;;5452091;26;20441;-69
2024/04/23 01:42:32;;;;;;;2.43;1.50;;;22.90;51.00;;;;;;5452070;26;20456;-69
2024/04/23 01:44:59;;;;;;;1.57;1.47;;;22.90;51.00;;;;;;5451965;26;20947;-68
2024/04/23 01:47:24;;;;;;;2.00;1.37;;;22.90;51.00;;;;;;5451807;26;20544;-69
2024/04/23 01:49:51;;;;;;;1.70;1.60;;;22.90;51.10;;;;;;5451779;26;21006;-70
2024/04/23 01:52:17;;;;;;;2.13;1.70;;;22.90;51.00;;;;;;5420270;26;20227;-69
2024/04/23 01:54:43;;;;;;;1.57;1.47;;;22.90;51.10;;;;;;5451901;26;20440;-69
2024/04/23 01:57:11;;;;;;;1.70;1.57;;;22.90;51.10;;;;;;5452426;26;20487;-69
2024/04/23 01:59:41;;;;;;;1.70;1.53;;;22.90;51.10;;;;;;5451842;26;20231;-69
2024/04/23 02:02:06;;;;;;;1.90;1.60;;;22.90;51.10;;;;;;5451916;26;20499;-70
2024/04/23 02:04:32;;;;;;;1.60;1.30;;;22.90;51.10;;;;;;5451868;26;20511;-68
2024/04/23 02:06:58;;;;;;;2.03;1.70;;;22.90;51.10;;;;;;5451851;26;20215;-69
2024/04/23 02:09:24;;;;;;;2.17;1.47;;;22.90;51.10;;;;;;5451642;26;20457;-68
2024/04/23 02:11:56;;;;;;;1.93;1.60;;;22.90;51.10;;;;;;5451912;26;20270;-68
2024/04/23 02:14:21;;;;;;;1.50;1.40;;;22.90;51.10;;;;;;5451748;26;20485;-69
2024/04/23 02:16:47;;;;;;;1.83;1.60;;;22.90;51.10;;;;;;5451538;26;21133;-68
2024/04/23 02:19:12;;;;;;;1.57;1.47;;;22.90;51.30;;;;;;5450724;26;20340;-69
2024/04/23 02:21:38;;;;;;;1.60;1.30;;;22.90;51.60;;;;;;5451753;26;20809;-69
2024/04/23 02:24:04;;;;;;;1.70;1.30;;;22.90;51.00;;;;;;5451668;26;20617;-68
2024/04/23 02:26:29;;;;;;;2.00;1.60;;;22.80;50.90;;;;;;5451846;26;20265;-68
2024/04/23 02:28:55;;;;;;;1.97;1.63;;;22.90;51.00;;;;;;5451467;26;20287;-69
2024/04/23 02:31:20;;;;;;;1.97;1.50;;;22.90;51.00;;;;;;5451479;26;20705;-69
2024/04/23 02:33:47;;;;;;;2.33;1.13;;;22.90;51.00;;;;;;5451292;26;20578;-68
2024/04/23 02:36:13;;;;;;;1.93;1.73;;;22.90;51.00;;;;;;5451464;26;20223;-69
2024/04/23 02:38:38;;;;;;;2.10;1.87;;;22.90;51.10;;;;;;5451263;26;20509;-69
2024/04/23 02:41:04;;;;;;;1.30;1.20;;;22.80;51.00;;;;;;5451382;26;20227;-69
2024/04/23 02:43:29;;;;;;;2.03;1.57;;;22.90;51.10;;;;;;5451338;26;20286;-68
2024/04/23 02:45:55;;;;;;;1.40;1.30;;;22.90;51.00;;;;;;5419381;26;20644;-69
2024/04/23 02:48:20;;;;;;;2.13;1.60;;;22.80;50.90;;;;;;5451326;26;20837;-69
2024/04/23 02:50:46;;;;;;;2.70;2.00;;;22.80;51.00;;;;;;5451355;26;20258;-69
2024/04/23 02:53:12;;;;;;;2.20;1.57;;;22.80;51.00;;;;;;5451209;26;20215;-69
2024/04/23 02:55:37;;;;;;;2.13;1.70;;;22.80;51.00;;;;;;5451205;26;20327;-69
2024/04/23 02:58:03;;;;;;;2.77;2.00;;;22.80;51.00;;;;;;5451076;26;20228;-67
2024/04/23 03:00:29;;;;;;;1.70;1.47;;;22.80;51.00;;;;;;5451220;26;20216;-69
2024/04/23 03:02:54;;;;;;;1.90;1.60;;;22.80;51.00;;;;;;5451098;26;20219;-69
2024/04/23 03:05:20;;;;;;;1.70;1.50;;;22.90;51.10;;;;;;5450972;26;20219;-69
2024/04/23 03:07:45;;;;;;;1.83;1.30;;;22.80;51.00;;;;;;5451103;26;20227;-69
2024/04/23 03:10:11;;;;;;;1.63;1.40;;;22.80;51.00;;;;;;5451114;26;20215;-69
2024/04/23 03:12:36;;;;;;;2.00;1.60;;;22.80;51.00;;;;;;5451190;26;20223;-69
2024/04/23 03:15:02;;;;;;;1.73;1.40;;;22.80;51.00;;;;;;5450948;26;20564;-68
2024/04/23 03:17:28;;;;;;;1.30;1.10;;;22.80;51.00;;;;;;5450925;26;20215;-69
2024/04/23 03:19:53;;;;;;;1.60;1.30;;;22.80;51.00;;;;;;5450938;26;20265;-69
2024/04/23 03:22:19;;;;;;;1.40;1.20;;;22.80;51.00;;;;;;5450773;26;20304;-68
2024/04/23 03:24:45;;;;;;;1.40;1.30;;;22.80;51.00;;;;;;5450736;26;20273;-69
2024/04/23 03:27:10;;;;;;;1.87;1.53;;;22.90;51.10;;;;;;5450705;26;20216;-68
2024/04/23 03:29:36;;;;;;;2.47;1.70;;;22.80;51.00;;;;;;5450739;26;20227;-69
2024/04/23 03:32:03;;;;;;;1.87;1.40;;;22.80;51.00;;;;;;5448904;26;20274;-69
2024/04/23 03:34:30;;;;;;;1.60;1.37;;;22.80;51.00;;;;;;5450676;26;20215;-68
2024/04/23 03:36:56;;;;;;;1.60;1.50;;;22.80;51.00;;;;;;5450607;26;20505;-69
2024/04/23 03:39:21;;;;;;;1.60;1.50;;;22.80;50.90;;;;;;5450401;26;20570;-69
2024/04/23 03:41:58;;;;;;;2.20;1.57;;;22.80;51.00;;;;;;5450441;26;20449;-69
2024/04/23 03:44:25;;;;;;;2.00;1.57;;;22.80;51.00;;;;;;5450400;26;20223;-68
2024/04/23 03:46:51;;;;;;;1.50;1.40;;;22.80;51.00;;;;;;5418641;26;20978;-69
2024/04/23 03:49:17;;;;;;;1.30;1.10;;;22.80;51.00;;;;;;5418403;26;20529;-68
2024/04/23 03:51:42;;;;;;;1.63;1.50;;;22.80;51.00;;;;;;5450259;26;20436;-68
2024/04/23 03:54:08;;;;;;;1.30;1.10;;;22.80;51.00;;;;;;5450278;26;20262;-69
2024/04/23 03:56:34;;;;;;;1.60;1.20;;;22.80;50.90;;;;;;5450211;26;20219;-69
2024/04/23 03:58:59;;;;;;;1.40;1.27;;;22.80;51.00;;;;;;5450551;26;20341;-69
2024/04/23 04:01:25;;;;;;;1.57;1.37;;;22.80;51.00;;;;;;5450356;26;20859;-68
2024/04/23 04:06:34;;;;;;;1.20;1.10;;;22.80;51.00;;;;;;5450440;26;20261;-69
2024/04/23 04:09:00;;;;;;;1.73;1.60;;;22.80;51.00;;;;;;5450264;26;20452;-69
2024/04/23 04:11:31;;;;;;;2.17;1.50;;;22.80;51.00;;;;;;5449943;26;20227;-68
2024/04/23 04:14:00;;;;;;;1.83;1.60;;;22.80;51.00;;;;;;5450058;26;20325;-68
2024/04/23 04:16:26;;;;;;;1.80;1.70;;;22.80;51.00;;;;;;5449947;26;20449;-69
2024/04/23 04:18:51;;;;;;;1.67;1.50;;;22.80;51.10;;;;;;5450072;26;20512;-66
2024/04/23 04:21:17;;;;;;;2.40;1.37;;;22.80;51.00;;;;;;5418006;26;20231;-69
2024/04/23 04:23:42;;;;;;;1.67;1.10;;;22.80;51.00;;;;;;5449882;26;20258;-69
2024/04/23 04:26:12;;;;;;;1.67;1.50;;;22.80;51.00;;;;;;5449787;26;20266;-69
2024/04/23 04:28:44;;;;;;;1.17;1.07;;;22.80;51.10;;;;;;5449655;26;20281;-69
2024/04/23 04:31:09;;;;;;;2.17;1.40;;;22.80;51.00;;;;;;5449383;26;20505;-69
2024/04/23 04:33:39;;;;;;;1.73;1.30;;;22.80;51.00;;;;;;5449589;26;20457;-68
2024/04/23 04:36:05;;;;;;;1.40;1.30;;;22.80;51.00;;;;;;5449705;26;20219;-69
2024/04/23 04:38:31;;;;;;;1.40;1.23;;;22.80;51.00;;;;;;5449459;26;20548;-69
2024/04/23 04:40:57;;;;;;;1.43;1.07;;;22.80;51.00;;;;;;5449354;26;20219;-69
2024/04/23 04:43:23;;;;;;;2.23;1.50;;;22.80;51.00;;;;;;5454055;26;20448;-69
2024/04/23 04:45:48;;;;;;;1.37;1.27;;;22.80;51.00;;;;;;5457283;26;21020;-68
2024/04/23 04:48:14;;;;;;;2.37;1.20;;;22.80;51.00;;;;;;5456759;26;20239;-68
2024/04/23 04:50:40;;;;;;;1.40;1.30;;;22.80;51.00;;;;;;5457066;26;20270;-69
2024/04/23 04:53:05;;;;;;;1.20;1.03;;;22.80;51.00;;;;;;5456976;26;20231;-68
2024/04/23 04:55:31;;;;;;;1.53;1.30;;;22.80;51.00;;;;;;5456888;26;20282;-69
2024/04/23 04:57:57;;;;;;;2.23;1.47;;;22.80;51.00;;;;;;5456964;26;20603;-69
2024/04/23 05:00:22;;;;;;;1.50;1.40;;;22.80;51.00;;;;;;5456745;26;20311;-69
2024/04/23 05:02:48;;;;;;;3.47;1.50;;;22.80;51.00;;;;;;5456768;26;20227;-69
2024/04/23 05:05:13;;;;;;;1.50;1.30;;;22.80;51.00;;;;;;5456739;26;20288;-68
2024/04/23 05:07:39;;;;;;;1.40;1.20;;;22.80;51.00;;;;;;5456588;26;20609;-68
2024/04/23 05:10:05;;;;;;;1.30;1.20;;;22.80;51.00;;;;;;5458354;26;20262;-69
2024/04/23 05:12:31;;;;;;;1.97;1.43;;;22.80;51.00;;;;;;5458631;26;20230;-69
2024/04/23 05:14:57;;;;;;;1.63;1.50;;;22.80;51.00;;;;;;5458148;26;20796;-69
2024/04/23 05:17:22;;;;;;;1.93;1.30;;;22.80;51.00;;;;;;5458464;26;20266;-69
2024/04/23 05:19:48;;;;;;;1.80;1.50;;;22.80;51.00;;;;;;5458304;26;20718;-69
2024/04/23 05:22:14;;;;;;;1.60;1.47;;;22.80;51.00;;;;;;5458157;26;20581;-69
2024/04/23 05:24:39;;;;;;;1.30;1.20;;;22.80;51.10;;;;;;5458448;26;20269;-70
2024/04/23 05:27:05;;;;;;;1.40;1.23;;;22.90;51.10;;;;;;5458353;26;20790;-69
2024/04/23 05:29:31;;;;;;;1.20;1.10;;;22.90;51.10;;;;;;5458222;26;20280;-69
2024/04/23 05:34:48;;;;;;;2.03;1.67;;;22.90;51.10;;;;;;5415996;26;20215;-69
2024/04/23 05:37:14;;;;;;;1.70;1.40;;;22.90;51.20;;;;;;5457943;26;20436;-68
2024/04/23 05:39:39;;;;;;;1.47;1.10;;;22.90;51.20;;;;;;5458142;26;20574;-69
2024/04/23 05:42:05;;;;;;;2.03;1.10;;;22.90;51.20;;;;;;5458347;26;20254;-68
2024/04/23 05:44:30;;;;;;;1.37;1.20;;;22.90;51.20;;;;;;5458418;26;20304;-69
2024/04/23 05:46:56;;;;;;;1.50;1.30;;;22.90;51.20;;;;;;5458711;26;20215;-68
2024/04/23 05:49:59;;;;;;;1.60;1.30;;;22.90;51.20;;;;;;5458094;26;20235;-69
2024/04/23 05:53:02;;;;;;;1.60;1.50;;;22.90;51.20;;;;;;5457816;26;20227;-68
2024/04/23 05:55:38;;;;;;;1.70;1.23;;;22.90;51.20;;;;;;5453306;26;20495;-69
2024/04/23 05:58:05;;;;;;;1.73;1.43;;;22.90;51.20;;;;;;5454216;26;20559;-69
2024/04/23 06:00:30;;;;;;;2.10;1.40;;;22.90;51.30;;;;;;5454198;26;20797;-69
2024/04/23 06:02:56;;;;;;;2.07;1.10;;;22.90;51.20;;;;;;5453852;26;20444;-69
2024/04/23 06:05:23;;;;;;;2.07;1.30;;;22.90;51.20;;;;;;5453907;26;20274;-69
2024/04/23 06:07:49;;;;;;;1.33;1.23;;;22.90;51.20;;;;;;5453850;26;20573;-69
2024/04/23 06:10:14;;;;;;;2.23;1.40;;;22.90;51.20;;;;;;5453903;26;20449;-69
2024/04/23 06:12:40;;;;;;;1.60;1.37;;;22.90;51.20;;;;;;5422499;26;20232;-68
2024/04/23 06:15:06;;;;;;;2.27;1.53;;;22.90;51.20;;;;;;5453884;26;20216;-70
2024/04/23 06:17:35;;;;;;;1.83;1.30;;;22.90;51.20;;;;;;5453475;26;20279;-70
2024/04/23 06:20:05;;;;;;;1.33;1.20;;;22.90;51.20;;;;;;5453736;26;20445;-68
2024/04/23 06:22:35;;;;;;;1.47;1.20;;;22.90;51.20;;;;;;5453420;26;20566;-70
2024/04/23 06:25:03;;;;;;;1.30;1.20;;;22.90;51.20;;;;;;5453492;26;20986;-67
2024/04/23 06:27:31;;;;;;;1.37;1.13;;;22.90;51.20;;;;;;5453304;26;20440;-69
2024/04/23 06:30:08;;;;;;;1.60;1.10;;;22.90;51.20;;;;;;5453338;26;20803;-67
2024/04/23 06:32:34;;;;;;;1.40;1.30;;;22.90;51.20;;;;;;5453705;26;20894;-69
2024/04/23 06:35:00;;;;;;;1.67;1.27;;;22.90;51.20;;;;;;5453515;26;20444;-69
2024/04/23 06:37:25;;;;;;;1.40;1.10;;;22.90;51.20;;;;;;5453608;26;20441;-70
2024/04/23 06:39:51;;;;;;;1.60;1.40;;;22.90;51.20;;;;;;5452654;26;20631;-69
2024/04/23 06:42:16;;;;;;;1.40;1.20;;;22.90;51.20;;;;;;5453569;26;20340;-68
2024/04/23 06:44:42;;;;;;;1.70;1.60;;;22.90;51.20;;;;;;5453675;26;20215;-70
2024/04/23 06:47:07;;;;;;;3.00;1.10;;;22.90;51.20;;;;;;5453488;26;20273;-69
2024/04/23 06:49:34;;;;;;;1.23;1.13;;;22.90;51.20;;;;;;5421524;26;20239;-67
2024/04/23 06:52:00;;;;;;;2.30;1.37;;;22.90;51.20;;;;;;5453306;26;20279;-69
2024/04/23 06:54:26;;;;;;;1.50;1.30;;;22.90;51.20;;;;;;5453001;26;20437;-69
2024/04/23 06:56:52;;;;;;;1.60;1.20;;;23.00;51.30;;;;;;5453115;26;20547;-69
2024/04/23 06:59:17;;;;;;;1.47;1.37;;;22.90;51.20;;;;;;5453223;26;20273;-69
2024/04/23 07:01:43;;;;;;;1.43;1.20;;;23.00;51.30;;;;;;5453802;26;20216;-69
2024/04/23 07:04:09;;;;;;;1.60;1.40;;;22.90;51.20;;;;;;5453339;26;20219;-68
2024/04/23 07:06:36;;;;;;;1.57;1.10;;;23.00;51.30;;;;;;5452906;26;20497;-69
2024/04/23 07:09:06;;;;;;;1.23;1.13;;;23.00;51.30;;;;;;5452930;26;20797;-68
2024/04/23 07:11:32;;;;;;;1.40;1.30;;;23.00;51.30;;;;;;5453050;26;20534;-68
2024/04/23 07:13:57;;;;;;;1.57;1.20;;;23.00;51.30;;;;;;5452863;26;20434;-69
2024/04/23 07:16:23;;;;;;;1.30;1.07;;;23.00;51.30;;;;;;5453025;26;20227;-70
2024/04/23 07:18:49;;;;;;;1.30;1.20;;;23.00;51.30;;;;;;5453270;26;20235;-69
2024/04/23 07:21:14;;;;;;;1.10;0.87;;;23.00;51.30;;;;;;5453587;26;20251;-68
2024/04/23 07:23:40;;;;;;;1.30;1.07;;;23.00;51.30;;;;;;5452820;26;20216;-69
2024/04/23 07:26:06;;;;;;;1.97;1.60;;;23.00;51.30;;;;;;5452817;26;20702;-69
2024/04/23 07:28:31;;;;;;;1.80;1.40;;;23.00;51.30;;;;;;5452997;26;20586;-69
2024/04/23 07:31:00;;;;;;;1.30;1.00;;;23.00;51.30;;;;;;5452806;26;20274;-69
2024/04/23 07:33:26;;;;;;;1.30;1.20;;;23.00;51.30;;;;;;5420882;26;20261;-68
2024/04/23 07:35:51;;;;;;;1.30;1.13;;;23.00;51.30;;;;;;5452888;26;20536;-69
2024/04/23 07:38:17;;;;;;;1.60;1.27;;;23.00;51.30;;;;;;5452748;26;20848;-69
2024/04/23 07:40:46;;;;;;;1.40;1.10;;;23.00;51.30;;;;;;5453172;26;20231;-69
2024/04/23 07:43:12;;;;;;;3.13;1.20;;;23.00;51.30;;;;;;5452581;26;20258;-68
2024/04/23 07:45:37;;;;;;;2.80;1.40;;;23.00;51.30;;;;;;5452644;26;20448;-69
2024/04/23 07:48:03;;;;;;;1.10;1.00;;;23.00;51.30;;;;;;5452780;26;20476;-69
2024/04/23 07:50:29;;;;;;;1.40;1.10;;;23.00;51.30;;;;;;5452456;26;20223;-69
2024/04/23 07:52:55;;;;;;;3.33;1.10;;;23.00;51.30;;;;;;5452756;26;20496;-69
2024/04/23 07:55:20;;;;;;;1.23;0.93;;;23.00;51.30;;;;;;5452145;26;20265;-69
2024/04/23 07:57:47;;;;;;;1.17;1.03;;;23.00;51.30;;;;;;5452550;26;20227;-69
2024/04/23 08:00:15;;;;;;;1.60;1.00;;;23.00;51.30;;;;;;5452355;26;20499;-69
2024/04/23 08:02:44;;;;;;;1.60;1.20;;;23.00;51.30;;;;;;5452385;26;20449;-69
2024/04/23 08:05:09;;;;;;;1.50;1.37;;;23.00;51.30;;;;;;5452318;26;20600;-69
2024/04/23 08:07:35;;;;;;;1.33;1.13;;;23.00;51.30;;;;;;5451969;26;20462;-68
2024/04/23 08:10:01;;;;;;;5.17;1.13;;;23.00;51.30;;;;;;5452124;26;20223;-69
2024/04/23 08:12:26;;;;;;;1.10;0.93;;;23.00;51.30;;;;;;5420754;26;20663;-69
2024/04/23 08:14:52;;;;;;;1.00;0.90;;;23.00;51.30;;;;;;5451788;26;20665;-69
2024/04/23 08:17:22;;;;;;;1.40;1.00;;;23.00;51.30;;;;;;5450549;26;21088;-69
2024/04/23 08:19:48;;;;;;;1.10;0.97;;;23.00;51.30;;;;;;5451811;26;20469;-69
2024/04/23 08:22:14;;;;;;;1.73;1.27;;;23.00;51.30;;;;;;5451888;26;20524;-69
2024/04/23 08:24:39;;;;;;;1.37;1.13;;;23.00;51.30;;;;;;5451788;26;20855;-69
2024/04/23 08:27:05;;;;;;;1.10;0.90;;;23.00;51.30;;;;;;5452303;26;20335;-69
2024/04/23 08:29:31;;;;;;;1.27;1.10;;;23.00;51.30;;;;;;5451974;26;20235;-70
2024/04/23 08:31:57;;;;;;;1.10;0.90;;;23.00;51.30;;;;;;5452000;26;20643;-68
2024/04/23 08:34:23;;;;;;;1.57;1.03;;;23.10;51.40;;;;;;5452203;26;20452;-68
2024/04/23 08:36:50;;;;;;;1.00;0.90;;;23.00;51.30;;;;;;5451857;26;20505;-69
2024/04/23 08:39:15;;;;;;;1.80;1.30;;;23.00;51.30;;;;;;5452109;26;20231;-68
2024/04/23 08:41:41;;;;;;;1.50;1.27;;;23.10;51.40;;;;;;5451891;26;21028;-69
2024/04/23 08:44:09;;;;;;;1.03;0.87;;;23.10;51.40;;;;;;5451860;26;20231;-69
2024/04/23 08:46:36;;;;;;;1.10;1.00;;;23.00;51.30;;;;;;5451726;26;20444;-69
2024/04/23 08:49:05;;;;;;;1.67;1.20;;;23.10;51.40;;;;;;5450856;26;20464;-69
2024/04/23 08:51:32;;;;;;;1.10;1.00;;;23.10;51.40;;;;;;5451419;26;20505;-66
2024/04/23 08:53:58;;;;;;;1.00;0.90;;;23.10;51.40;;;;;;5451742;26;20493;-69
2024/04/23 08:56:31;;;;;;;1.23;1.13;;;23.10;51.40;;;;;;5452012;26;20464;-68
2024/04/23 08:58:57;;;;;;;1.30;1.00;;;23.10;51.40;;;;;;5451073;26;20480;-69
2024/04/23 09:01:41;;;;;;;1.83;1.30;;;23.10;51.40;;;;;;5451030;26;20528;-69
2024/04/23 09:04:07;;;;;;;1.10;0.90;;;23.10;51.40;;;;;;5451193;26;20509;-67
2024/04/23 09:06:33;;;;;;;1.10;0.90;;;23.10;51.40;;;;;;5451224;26;20449;-69
2024/04/23 09:08:59;;;;;;;1.17;0.87;;;23.10;51.40;;;;;;5450898;26;20465;-68
2024/04/23 09:11:27;;;;;;;1.30;1.00;;;23.10;51.40;;;;;;5451142;26;20579;-70
2024/04/23 09:13:54;;;;;;;1.20;1.10;;;23.10;51.40;;;;;;5450463;26;20453;-67
2024/04/23 09:16:19;;;;;;;1.00;0.90;;;23.10;51.40;;;;;;5451118;26;20453;-68
2024/04/23 09:18:45;;;;;;;1.57;1.10;;;23.10;51.40;;;;;;5450728;26;21035;-68
2024/04/23 09:21:11;;;;;;;1.10;0.90;;;23.10;51.40;;;;;;5450772;26;20822;-69
2024/04/23 09:23:37;;;;;;;1.57;1.13;;;23.10;51.40;;;;;;5449973;26;20262;-69
2024/04/23 09:26:03;;;;;;;1.23;0.90;;;23.10;51.40;;;;;;5449202;26;20994;-69
2024/04/23 09:28:33;;;;;;;2.00;1.57;;;23.10;51.40;;;;;;5449466;26;20946;-68
2024/04/23 09:30:59;;;;;;;1.83;1.00;;;23.10;51.40;;;;;;5452572;26;20449;-69
2024/04/23 09:33:28;;;;;;;1.20;1.00;;;23.10;51.50;;;;;;5452199;26;20570;-67
2024/04/23 09:36:04;;;;;;;1.30;1.17;;;23.10;51.50;;;;;;5452473;26;20295;-68
2024/04/23 09:38:40;;;;;;;1.40;0.93;;;23.10;51.50;;;;;;5452266;26;20594;-67
2024/04/23 09:41:07;;;;;;;1.13;0.93;;;23.10;51.50;;;;;;5452707;26;20500;-69
2024/04/23 09:43:33;;;;;;;1.67;1.00;;;23.10;51.60;;;;;;5452661;26;20630;-69
2024/04/23 09:45:59;;;;;;;1.57;1.30;;;23.10;51.70;;;;;;5452293;26;21070;-67
2024/04/23 09:48:29;;;;;;;1.43;0.97;;;23.10;51.60;;;;;;5452081;26;20528;-69
2024/04/23 09:51:17;;;;;;;1.33;1.23;;;23.10;51.60;;;;;;5452305;26;20258;-69
2024/04/23 09:53:42;;;;;;;4.80;1.20;;;23.20;51.70;;;;;;5451964;26;20448;-68
2024/04/23 09:56:14;;;;;;;1.30;0.90;;;23.10;51.60;;;;;;5452051;26;20453;-69
2024/04/23 09:58:39;;;;;;;1.73;1.00;;;23.20;51.70;;;;;;5452007;26;20275;-69
2024/04/23 10:01:07;;;;;;;1.30;1.10;;;23.20;51.70;;;;;;5452173;26;20495;-70
2024/04/23 10:03:38;;;;;;;1.90;0.90;;;23.20;51.70;;;;;;5451991;26;20712;-69
2024/04/23 10:06:06;;;;;;;1.20;1.10;;;23.20;51.70;;;;;;5452440;26;20567;-68
2024/04/23 10:08:48;;;;;;;1.53;1.00;;;23.20;51.70;;;;;;5452248;26;20460;-68
2024/04/23 10:11:22;;;;;;;1.47;1.00;;;23.20;51.70;;;;;;5451887;26;20441;-70
2024/04/23 10:13:53;;;;;;;1.10;0.93;;;23.20;51.70;;;;;;5452110;26;20508;-70
2024/04/23 10:16:22;;;;;;;1.83;0.90;;;23.20;51.70;;;;;;5422116;26;20967;-69
2024/04/23 10:18:59;;;;;;;2.17;1.00;;;23.20;51.70;;;;;;5454347;26;20590;-68
2024/04/23 10:21:32;;;;;;;1.43;1.00;;;23.20;51.70;;;;;;5422629;26;20487;-68
2024/04/23 10:24:07;;;;;;;1.43;1.00;;;23.20;51.70;;;;;;5453581;26;20570;-68
2024/04/23 10:26:44;;;;;;;2.60;1.03;;;23.20;51.70;;;;;;5454339;26;20464;-68
2024/04/23 10:29:12;;;;;;;1.73;1.03;;;23.20;51.70;;;;;;5454151;26;20460;-69
2024/04/23 10:31:40;;;;;;;1.20;1.00;;;23.20;51.70;;;;;;5454646;26;20444;-69
2024/04/23 10:34:07;;;;;;;1.43;1.10;;;23.20;51.70;;;;;;5422673;26;20944;-68
2024/04/23 10:36:39;;;;;;;1.40;1.00;;;23.20;51.70;;;;;;5453761;26;20524;-69
2024/04/23 10:39:06;;;;;;;1.13;1.00;;;23.20;51.60;;;;;;5453644;26;20468;-68
2024/04/23 10:41:35;;;;;;;2.90;1.27;;;23.20;51.60;;;;;;5453204;26;20532;-67
2024/04/23 10:44:02;;;;;;;1.20;1.00;;;23.20;51.60;;;;;;5453842;26;20495;-70
2024/04/23 10:46:28;;;;;;;1.27;1.17;;;23.20;52.20;;;;;;5453204;26;20453;-68
2024/04/23 10:48:54;;;;;;;1.33;0.93;;;23.20;51.60;;;;;;5453570;26;20528;-69
2024/04/23 10:51:21;;;;;;;1.53;1.00;;;23.20;51.60;;;;;;5453469;26;20259;-69
2024/04/23 10:53:47;;;;;;;1.30;1.03;;;23.20;51.60;;;;;;5453333;26;20579;-69
2024/04/23 10:56:24;;;;;;;2.23;1.20;;;23.20;51.60;;;;;;5453679;26;21027;-69
2024/04/23 10:59:03;;;;;;;1.10;1.00;;;23.20;51.60;;;;;;5453468;26;20551;-69
2024/04/23 11:01:29;;;;;;;1.10;0.97;;;23.20;51.60;;;;;;5453133;26;20500;-69
2024/04/23 11:03:56;;;;;;;1.00;0.90;;;23.20;51.70;;;;;;5454068;26;20791;-68
2024/04/23 11:06:34;;;;;;;1.40;1.20;;;23.20;51.60;;;;;;5453212;26;20226;-69
2024/04/23 11:09:13;;;;;;;1.40;0.97;;;23.20;51.60;;;;;;5453054;26;20464;-70
2024/04/23 11:11:39;;;;;;;1.33;0.97;;;23.10;51.60;;;;;;5453203;26;20844;-69
2024/04/23 11:14:04;;;;;;;2.27;1.30;;;23.10;51.60;;;;;;5453437;26;20441;-69
2024/04/23 11:16:30;;;;;;;1.50;1.10;;;23.20;51.70;;;;;;5421227;26;20726;-68
2024/04/23 11:18:58;;;;;;;1.73;1.30;;;23.20;51.70;;;;;;5452956;26;20239;-68
2024/04/23 11:21:25;;;;;;;7.10;5.00;;;23.10;51.60;;;;;;5453019;26;20618;-69
2024/04/23 11:23:51;;;;;;;2.20;1.57;;;23.20;51.70;;;;;;5452959;26;20528;-69
2024/04/23 11:26:17;;;;;;;5.50;3.63;;;23.20;51.70;;;;;;5453660;26;20456;-69
2024/04/23 11:28:43;;;;;;;18.23;10.47;;;23.20;51.70;;;;;;5453101;26;20227;-67
2024/04/23 11:31:09;;;;;;;65.33;29.93;;;23.10;51.60;;;;;;5453151;26;20505;-68
2024/04/23 11:33:40;;;;;;;47.23;20.53;;;23.20;51.60;;;;;;5452947;26;20277;-68
2024/04/23 11:36:06;;;;;;;34.97;16.73;;;23.20;52.20;;;;;;5453123;26;20266;-69
2024/04/23 11:38:39;;;;;;;50.10;22.60;;;23.10;51.60;;;;;;5452540;26;20461;-69
2024/04/23 11:41:09;;;;;;;44.43;24.87;;;23.20;51.60;;;;;;5452613;26;20537;-68
2024/04/23 11:43:35;;;;;;;55.53;28.23;;;23.20;51.70;;;;;;5452837;26;20623;-67
2024/04/23 11:46:01;;;;;;;71.30;33.53;;;23.20;51.70;;;;;;5453335;26;20791;-67
2024/04/23 11:48:27;;;;;;;78.77;35.93;;;23.20;51.70;;;;;;5452290;26;21001;-68
2024/04/23 11:50:54;;;;;;;97.93;40.67;;;23.20;51.70;;;;;;5420575;26;20453;-69
2024/04/23 11:53:20;;;;;;;92.57;41.50;;;23.20;51.70;;;;;;5450766;26;20222;-68
2024/04/23 11:55:46;;;;;;;97.57;47.57;;;23.20;51.70;;;;;;5452924;26;20493;-70
2024/04/23 11:58:13;;;;;;;103.37;48.67;;;23.20;51.70;;;;;;5452263;26;20469;-69
2024/04/23 12:00:39;;;;;;;101.80;44.30;;;23.20;51.70;;;;;;5452164;26;20223;-68
2024/04/23 12:03:06;;;;;;;113.47;47.97;;;23.20;51.70;;;;;;5452394;26;20493;-69
2024/04/23 12:05:32;;;;;;;108.40;47.73;;;23.20;51.70;;;;;;5452155;26;20444;-67
2024/04/23 12:07:59;;;;;;;133.43;54.07;;;23.20;51.70;;;;;;5452538;26;20523;-69
2024/04/23 12:10:33;;;;;;;126.60;49.50;;;23.20;51.70;;;;;;5452054;26;20448;-68
2024/04/23 12:12:59;;;;;;;110.97;47.53;;;23.20;51.70;;;;;;5452288;26;20461;-69
2024/04/23 12:15:25;;;;;;;106.93;50.33;;;23.20;51.70;;;;;;5420808;26;20509;-68
2024/04/23 12:17:51;;;;;;;102.53;48.80;;;23.20;51.70;;;;;;5453478;26;20239;-69
2024/04/23 12:20:17;;;;;;;115.00;52.77;;;23.10;51.60;;;;;;5453043;26;20855;-69
2024/04/23 12:22:44;;;;;;;102.17;48.10;;;23.20;51.70;;;;;;5420991;26;20257;-68
2024/04/23 12:25:21;;;;;;;90.30;46.23;;;23.10;51.70;;;;;;5452575;26;20464;-68
2024/04/23 12:27:48;;;;;;;94.73;47.93;;;23.20;51.70;;;;;;5452409;26;20506;-69
2024/04/23 12:30:17;;;;;;;99.20;44.33;;;23.10;51.70;;;;;;5452986;26;20445;-69
2024/04/23 12:32:43;;;;;;;118.83;50.27;;;23.20;51.70;;;;;;5452359;26;20503;-69
2024/04/23 12:35:09;;;;;;;115.07;49.63;;;23.20;51.70;;;;;;5452312;26;20493;-69
2024/04/23 12:37:35;;;;;;;104.43;47.60;;;23.20;51.80;;;;;;5452255;26;20745;-69
2024/04/23 12:40:05;;;;;;;88.90;44.83;;;23.10;51.70;;;;;;5452549;26;20552;-69
2024/04/23 12:42:36;;;;;;;95.03;42.93;;;23.20;51.80;;;;;;5452252;26;20508;-69
2024/04/23 12:45:02;;;;;;;103.30;45.10;;;23.20;51.80;;;;;;5452164;26;20448;-69
2024/04/23 12:47:28;;;;;;;97.63;44.87;;;23.10;51.70;;;;;;5451766;26;20449;-69
2024/04/23 12:49:53;;;;;;;88.77;42.50;;;23.10;51.70;;;;;;5451835;26;20831;-69